CYKA Airport Information

Runway Information
Runway 04 Length 2074 ft width 50 ft
Elevation 1129 ft Threshold 0 ft Heading 61
Runway 22 Length 2074 ft Width 50 ft
Elevation 1129 ft Threshold 0 ft Heading 241
Runway 08 Length 6000 ft width 148 ft
Elevation 1130 ft Threshold 0 ft Heading 103
Runway 26 Length 6000 ft Width 148 ft
Elevation 1133 ft Threshold 0 ft Heading 283
Airport Frequencies
Type CLNC DEL Name Light hrs Frequency 121.9 MHZ
Type MF Name Kamloops R Frequency 125.7 MHZ
Type PAL Name Vancouver Frequency 132.35 MHZ
Type PVT ADV Name Shell Aero Frequency 123 MHZ
Type RCO Name Pacific Ra Frequency 123.375 MHZ
Type VDF Name Frequency 125.7 MHZ
Airport Navaids
Type DME Name Kamloops Frequency 109900 KHZ
Type NDB Name Kamloops Frequency 223 KHZ
Airport Weather Information & NOTAM
ADDS - METARS form results

(1605 UTC 03 December 2021)
Data provider http://aviationweather.gov/metar/data/
 
Forecast for: CYKA (KAMLOOPS AIRPORT, BC, CA)
Text: TAF CYKA 031240Z 0313/0401 VRB03KT P6SM SCT060 BKN200 RMK NXT FCST BY 031900Z
Forecast period: 1300 UTC 03 December 2021 to 0100 UTC 04 December 2021
Forecast type: FROM: standard forecast or significant change
Winds: variable direction winds at 3 MPH (3 knots; 1.5 m/s)
Visibility: 6 or more miles (10+ km)
Ceiling: 20000 feet AGL
Clouds: scattered clouds at 6000 feet AGL
broken clouds at 20000 feet AGL
Weather: no significant weather forecast for this period